Etusivu
METAR-TAF:

METAR-TAF

Lentoasemat :

Princeton, Brittiläinen Kolumbia, Kanada

Leveyspiiri: 49-28N, Pituuspiiri: 120-31W, korkeus merenpinnasta: 700 m

Tämänhetkinen sää

Tämä raportti tehtiin 9 tuntia ja 9 minuuttia sitten, kello 01.00 UTC
Tuuli 2 kn lännestä/luoteesta
Lämpötila 3°C
Kosteus 93%
Ilmanpaine 1018 hPa
Näkyvyys: 32.2 km
Hajanaisia pilviä 3900 ft:n korkeudessa
Hajonneita pilviä 4300 ft:n korkeudessa

METAR: CYDC 130100Z 30002KT 20SM SCT039 BKN043 03/02 A3006 RMK SC4SC3 LAST STFD OBS/NEXT 13 1500UTC SLP201

Aika: 02:09 (10:09 UTC)


TAF: puuttuu

Säähavainnot ja -ennusteet yli 4000 lentoasemalta (METAR- ja TAF-raportit).

Käytössä olevat sääasemat on merkitty karttaan keltaisilla ja punaisilla pisteillä.

Aseta hiiri pisteen päälle nähdäksesi sääaseman nimen.

Klikkaa sitten nähdäksesi säähavainnot ja -ennusteet.

Kartan vaihtaminen: klikkaa mustalla rastilla varustettuja vihreitä pisteitä, niin voit zoomata sisään; viivalla varustettua vihreää pistettä, niin voit zoomata ulos tai vihreitä nuolia, niin pääset viereisille kartoille.


METAR-TAF: